createdAt,value
2023-02-27T00:00:15.202Z,102365.22
2023-02-27T00:02:46.868Z,102366.00
2023-02-27T00:05:14.400Z,102368.47
2023-02-27T00:07:41.849Z,102365.69
2023-02-27T00:10:10.058Z,102360.63
2023-02-27T00:12:38.608Z,102366.72
2023-02-27T00:15:06.571Z,102370.09
2023-02-27T00:17:36.408Z,102381.53
2023-02-27T00:20:13.559Z,102368.47
2023-02-27T00:22:41.424Z,102378.41
2023-02-27T00:25:09.817Z,102376.50
2023-02-27T00:27:37.097Z,102377.72
2023-02-27T00:30:09.866Z,102377.94
2023-02-27T00:32:36.832Z,102368.25
2023-02-27T00:35:13.309Z,102370.22
2023-02-27T00:37:47.321Z,102378.84
2023-02-27T00:40:16.880Z,102376.19
2023-02-27T00:42:49.573Z,102375.38
2023-02-27T00:45:24.081Z,102369.28
2023-02-27T00:47:58.677Z,102377.09
2023-02-27T00:50:27.593Z,102373.38
2023-02-27T00:52:54.444Z,102380.94
2023-02-27T00:55:22.507Z,102378.97
2023-02-27T00:57:57.250Z,102383.28
2023-02-27T01:00:29.564Z,102378.63
2023-02-27T01:02:56.660Z,102373.03
2023-02-27T01:05:24.328Z,102379.91
2023-02-27T01:07:54.478Z,102376.28
2023-02-27T01:10:23.936Z,102384.75
2023-02-27T01:12:54.069Z,102383.06
2023-02-27T01:15:21.085Z,102381.06
2023-02-27T01:17:49.376Z,102369.53
2023-02-27T01:20:19.189Z,102364.88
2023-02-27T01:22:46.357Z,102375.00
2023-02-27T01:25:13.148Z,102363.00
2023-02-27T01:27:43.476Z,102366.75
2023-02-27T01:30:11.744Z,102366.13
2023-02-27T01:32:41.026Z,102365.47
2023-02-27T01:35:22.921Z,102368.59
2023-02-27T01:37:50.695Z,102358.06
2023-02-27T01:40:20.105Z,102361.00
2023-02-27T01:42:47.306Z,102365.78
2023-02-27T01:45:29.121Z,102366.94
2023-02-27T01:48:28.377Z,102358.22
2023-02-27T01:51:01.658Z,102358.53
2023-02-27T01:53:31.044Z,102370.22
2023-02-27T01:56:06.427Z,102364.84
2023-02-27T01:58:34.033Z,102359.91
2023-02-27T02:01:01.787Z,102359.38
2023-02-27T02:03:54.816Z,102361.50
2023-02-27T02:06:21.888Z,102370.22
2023-02-27T02:08:49.745Z,102367.41
2023-02-27T02:11:19.390Z,102366.91
2023-02-27T02:13:46.567Z,102361.50
2023-02-27T02:16:16.261Z,102370.00
2023-02-27T02:19:01.450Z,102372.31
2023-02-27T02:21:51.488Z,102374.72
2023-02-27T02:24:27.577Z,102363.91
2023-02-27T02:26:59.443Z,102355.34
2023-02-27T02:29:50.866Z,102367.84
2023-02-27T02:32:19.483Z,102363.28
2023-02-27T02:35:24.108Z,102366.34
2023-02-27T02:38:25.822Z,102360.88
2023-02-27T02:40:55.565Z,102363.75
2023-02-27T02:43:45.917Z,102357.19
2023-02-27T02:46:27.744Z,102370.47
2023-02-27T02:49:03.146Z,102369.13
2023-02-27T02:51:35.214Z,102369.78
2023-02-27T02:54:27.420Z,102372.34
2023-02-27T02:57:07.335Z,102370.59
2023-02-27T02:59:42.263Z,102370.31
2023-02-27T03:02:12.356Z,102370.56
2023-02-27T03:04:42.749Z,102385.81
2023-02-27T03:07:20.391Z,102376.22
2023-02-27T03:10:05.280Z,102377.00
2023-02-27T03:12:33.892Z,102383.91
2023-02-27T03:15:09.439Z,102389.22
2023-02-27T03:17:59.702Z,102390.69
2023-02-27T03:20:31.304Z,102380.09
2023-02-27T03:23:01.822Z,102384.63
2023-02-27T03:25:28.923Z,102384.63
2023-02-27T03:28:01.004Z,102381.06
2023-02-27T03:30:33.365Z,102386.00
2023-02-27T03:33:17.435Z,102385.09
2023-02-27T03:35:56.862Z,102388.22
2023-02-27T03:38:38.610Z,102387.81
2023-02-27T03:41:19.320Z,102391.16
2023-02-27T03:43:57.681Z,102392.97
2023-02-27T03:46:26.956Z,102396.16
2023-02-27T03:48:54.091Z,102391.66
2023-02-27T03:51:23.676Z,102397.03
2023-02-27T03:54:13.733Z,102403.06
2023-02-27T03:57:03.347Z,102399.41
2023-02-27T03:59:31.836Z,102415.38
2023-02-27T04:02:00.049Z,102416.16
2023-02-27T04:04:28.126Z,102420.16
2023-02-27T04:07:43.256Z,102415.91
2023-02-27T04:10:25.241Z,102423.84
2023-02-27T04:13:15.137Z,102423.69
2023-02-27T04:16:00.801Z,102423.97
2023-02-27T04:18:51.691Z,102424.66
2023-02-27T04:21:33.604Z,102425.13
2023-02-27T04:24:12.602Z,102428.81
2023-02-27T04:26:57.271Z,102423.84
2023-02-27T04:29:50.075Z,102428.72
2023-02-27T04:32:26.504Z,102425.50
2023-02-27T04:35:00.099Z,102428.53
2023-02-27T04:37:37.779Z,102426.56
2023-02-27T04:40:10.258Z,102428.53
2023-02-27T04:42:43.423Z,102435.91
2023-02-27T04:45:15.346Z,102427.34
2023-02-27T04:47:53.712Z,102434.25
2023-02-27T04:50:25.746Z,102432.47
2023-02-27T04:53:00.233Z,102431.47
2023-02-27T04:55:30.863Z,102439.53
2023-02-27T04:58:19.291Z,102432.38
2023-02-27T05:00:49.566Z,102430.50
2023-02-27T05:03:22.095Z,102431.88
2023-02-27T05:05:49.852Z,102438.38
2023-02-27T05:08:39.304Z,102436.69
2023-02-27T05:11:10.054Z,102440.53
2023-02-27T05:14:02.668Z,102437.97
2023-02-27T05:16:36.230Z,102435.53
2023-02-27T05:19:03.748Z,102434.16
2023-02-27T05:21:36.397Z,102443.69
2023-02-27T05:24:41.080Z,102432.50
2023-02-27T05:27:20.913Z,102442.06
2023-02-27T05:29:59.521Z,102437.91
2023-02-27T05:32:38.932Z,102443.19
2023-02-27T05:35:18.716Z,102444.22
2023-02-27T05:37:51.709Z,102447.94
2023-02-27T05:40:23.000Z,102438.31
2023-02-27T05:43:00.231Z,102440.31
2023-02-27T05:45:30.106Z,102443.88
2023-02-27T05:48:00.790Z,102447.34
2023-02-27T05:50:30.870Z,102449.16
2023-02-27T05:53:01.005Z,102455.78
2023-02-27T05:55:33.967Z,102448.88
2023-02-27T05:58:20.827Z,102460.28
2023-02-27T06:01:06.386Z,102463.63
2023-02-27T06:03:34.971Z,102465.69
2023-02-27T06:06:05.046Z,102468.09
2023-02-27T06:08:32.073Z,102460.13
2023-02-27T06:10:59.002Z,102461.75
2023-02-27T06:13:26.396Z,102465.31
2023-02-27T06:15:53.494Z,102465.03
2023-02-27T06:18:20.456Z,102467.34
2023-02-27T06:20:47.481Z,102474.72
2023-02-27T06:23:14.991Z,102475.81
2023-02-27T06:25:44.632Z,102480.34
2023-02-27T06:28:11.811Z,102487.75
2023-02-27T06:30:38.862Z,102483.88
2023-02-27T06:33:05.908Z,102491.69
2023-02-27T06:35:41.725Z,102499.56
2023-02-27T06:38:08.605Z,102489.63
2023-02-27T06:40:35.311Z,102495.31
2023-02-27T06:43:05.640Z,102498.69
2023-02-27T06:45:32.457Z,102498.22
2023-02-27T06:47:59.239Z,102502.78
2023-02-27T06:50:26.110Z,102507.06
2023-02-27T06:52:52.798Z,102511.28
2023-02-27T06:55:22.640Z,102510.34
2023-02-27T06:57:49.746Z,102510.00
2023-02-27T07:00:17.169Z,102515.38
2023-02-27T07:02:43.957Z,102518.19
2023-02-27T07:05:13.556Z,102522.47
2023-02-27T07:07:43.290Z,102525.06
2023-02-27T07:10:15.498Z,102524.19
2023-02-27T07:12:42.359Z,102533.38
2023-02-27T07:15:09.377Z,102542.38
2023-02-27T07:17:36.620Z,102537.94
2023-02-27T07:20:04.594Z,102534.75
2023-02-27T07:22:31.435Z,102540.94
2023-02-27T07:25:06.057Z,102537.41
2023-02-27T07:27:33.379Z,102547.31
2023-02-27T07:30:02.915Z,102544.34
2023-02-27T07:32:29.588Z,102545.91
2023-02-27T07:34:56.379Z,102541.78
2023-02-27T07:37:23.163Z,102548.16
2023-02-27T07:39:50.616Z,102547.56
2023-02-27T07:42:17.858Z,102545.66
2023-02-27T07:44:44.560Z,102549.88
2023-02-27T07:47:11.530Z,102549.00
2023-02-27T07:49:38.332Z,102557.75
2023-02-27T07:52:05.085Z,102551.56
2023-02-27T07:54:39.317Z,102559.38
2023-02-27T07:57:06.477Z,102555.59
2023-02-27T07:59:33.382Z,102561.25
2023-02-27T08:02:00.120Z,102561.31
2023-02-27T08:04:26.850Z,102560.47
2023-02-27T08:06:53.562Z,102567.59
2023-02-27T08:09:20.289Z,102555.00
2023-02-27T08:11:48.966Z,102559.50
2023-02-27T08:14:16.121Z,102554.63
2023-02-27T08:16:42.816Z,102551.03
2023-02-27T08:19:09.495Z,102552.38
2023-02-27T08:21:36.325Z,102550.38
2023-02-27T08:24:03.069Z,102538.31
2023-02-27T08:26:31.338Z,102554.78
2023-02-27T08:28:58.533Z,102541.84
2023-02-27T08:31:25.454Z,102555.03
2023-02-27T08:34:01.052Z,102558.88
2023-02-27T08:36:34.561Z,102553.53
2023-02-27T08:39:01.295Z,102550.88
2023-02-27T08:41:28.118Z,102553.97
2023-02-27T08:43:54.997Z,102564.94
2023-02-27T08:46:21.729Z,102566.59
2023-02-27T08:48:48.406Z,102567.13
2023-02-27T08:51:15.298Z,102566.31
2023-02-27T08:53:41.965Z,102563.78
2023-02-27T08:56:08.865Z,102568.84
2023-02-27T08:58:36.019Z,102574.78
2023-02-27T09:01:03.694Z,102565.59
2023-02-27T09:03:31.393Z,102558.34
2023-02-27T09:05:59.111Z,102563.38
2023-02-27T09:08:25.900Z,102566.22
2023-02-27T09:10:56.608Z,102564.25
2023-02-27T09:13:23.456Z,102571.16
2023-02-27T09:15:50.191Z,102570.81
2023-02-27T09:18:24.869Z,102558.53
2023-02-27T09:20:52.479Z,102571.22
2023-02-27T09:23:21.574Z,102565.53
2023-02-27T09:25:51.278Z,102557.97
2023-02-27T09:28:18.201Z,102576.38
2023-02-27T09:30:45.070Z,102567.88
2023-02-27T09:33:11.845Z,102585.84
2023-02-27T09:35:38.513Z,102576.59
2023-02-27T09:38:05.537Z,102578.38
2023-02-27T09:40:36.732Z,102576.16
2023-02-27T09:43:14.681Z,102579.00
2023-02-27T09:45:43.039Z,102578.19
2023-02-27T09:48:35.369Z,102578.75
2023-02-27T09:51:02.688Z,102576.03
2023-02-27T09:53:35.779Z,102579.34
2023-02-27T09:56:05.628Z,102581.16
2023-02-27T09:58:43.381Z,102581.53
2023-02-27T10:01:15.208Z,102588.84
2023-02-27T10:04:52.992Z,102584.78
2023-02-27T10:07:47.559Z,102579.19
2023-02-27T10:10:25.092Z,102579.47
2023-02-27T10:13:13.846Z,102575.50
2023-02-27T10:15:54.946Z,102587.09
2023-02-27T10:18:29.022Z,102588.94
2023-02-27T10:21:07.928Z,102579.50
2023-02-27T10:23:42.805Z,102585.88
2023-02-27T10:26:30.228Z,102579.06
2023-02-27T10:28:59.758Z,102581.25
2023-02-27T10:31:32.179Z,102586.66
2023-02-27T10:34:03.659Z,102581.44
2023-02-27T10:36:34.765Z,102587.25
2023-02-27T10:39:09.209Z,102589.22
2023-02-27T10:41:36.759Z,102581.69
2023-02-27T10:44:04.089Z,102585.94
2023-02-27T10:46:33.120Z,102581.63
2023-02-27T10:49:01.865Z,102584.19
2023-02-27T10:51:31.789Z,102589.56
2023-02-27T10:54:21.562Z,102594.03
2023-02-27T10:56:51.031Z,102589.06
2023-02-27T10:59:28.729Z,102579.69
2023-02-27T11:01:57.960Z,102586.88
2023-02-27T11:04:26.451Z,102577.34
2023-02-27T11:06:54.434Z,102578.72
2023-02-27T11:09:32.155Z,102574.22
2023-02-27T11:12:29.017Z,102569.47
2023-02-27T11:15:16.046Z,102568.06
2023-02-27T11:17:43.773Z,102559.97
2023-02-27T11:20:32.348Z,102565.78
2023-02-27T11:23:07.130Z,102556.03
2023-02-27T11:25:34.098Z,102553.34
2023-02-27T11:28:19.421Z,102556.44
2023-02-27T11:31:05.647Z,102558.50
2023-02-27T11:33:36.280Z,102555.28
2023-02-27T11:36:03.787Z,102546.66
2023-02-27T11:38:31.515Z,102542.78
2023-02-27T11:41:04.491Z,102543.06
2023-02-27T11:43:42.744Z,102541.28
2023-02-27T11:46:47.266Z,102533.03
2023-02-27T11:49:10.338Z,102542.72
2023-02-27T11:52:02.023Z,102534.88
2023-02-27T11:54:34.750Z,102534.72
2023-02-27T11:57:13.286Z,102525.38
2023-02-27T11:59:43.540Z,102522.69
2023-02-27T12:02:24.941Z,102526.06
2023-02-27T12:05:16.843Z,102528.16
2023-02-27T12:08:01.540Z,102514.88
2023-02-27T12:10:31.326Z,102516.13
2023-02-27T12:13:10.336Z,102514.34
2023-02-27T12:15:40.106Z,102525.41
2023-02-27T12:18:20.369Z,102512.28
2023-02-27T12:20:58.020Z,102522.13
2023-02-27T12:23:31.836Z,102517.22
2023-02-27T12:26:12.969Z,102520.22
2023-02-27T12:28:50.337Z,102516.38
2023-02-27T12:31:32.879Z,102516.03
2023-02-27T12:34:09.303Z,102506.75
2023-02-27T12:36:36.254Z,102507.91
2023-02-27T12:39:04.815Z,102509.66
2023-02-27T12:41:44.050Z,102508.06
2023-02-27T12:44:28.482Z,102501.97
2023-02-27T12:47:13.478Z,102493.41
2023-02-27T12:49:55.153Z,102493.25
2023-02-27T12:52:43.675Z,102490.97
2023-02-27T12:55:15.444Z,102494.66
2023-02-27T12:58:01.129Z,102495.91
2023-02-27T13:00:38.714Z,102499.66
2023-02-27T13:03:13.115Z,102486.56
2023-02-27T13:05:49.663Z,102488.84
2023-02-27T13:08:47.802Z,102496.19
2023-02-27T13:11:27.492Z,102485.47
2023-02-27T13:14:25.563Z,102487.41
2023-02-27T13:17:14.426Z,102483.00
2023-02-27T13:19:48.293Z,102491.06
2023-02-27T13:22:52.359Z,102499.72
2023-02-27T13:25:21.764Z,102487.53
2023-02-27T13:28:02.272Z,102488.84
2023-02-27T13:30:49.753Z,102474.34
2023-02-27T13:33:22.641Z,102479.06
2023-02-27T13:35:56.727Z,102479.81
2023-02-27T13:38:46.540Z,102479.59
2023-02-27T13:41:27.889Z,102479.63
2023-02-27T13:44:00.090Z,102480.44
2023-02-27T13:46:28.332Z,102467.22
2023-02-27T13:49:06.047Z,102470.69
2023-02-27T13:51:36.120Z,102469.91
2023-02-27T13:54:17.875Z,102467.41
2023-02-27T13:56:47.701Z,102468.84
2023-02-27T13:59:37.074Z,102472.31
2023-02-27T14:02:49.448Z,102464.59
2023-02-27T14:05:31.006Z,102463.19
2023-02-27T14:08:20.484Z,102467.16
2023-02-27T14:11:16.120Z,102465.81
2023-02-27T14:13:54.569Z,102468.75
2023-02-27T14:16:44.210Z,102454.91
2023-02-27T14:19:19.752Z,102456.56
2023-02-27T14:22:11.657Z,102448.28
2023-02-27T14:25:01.088Z,102443.78
2023-02-27T14:27:55.209Z,102450.06
2023-02-27T14:30:41.099Z,102442.22
2023-02-27T14:33:47.074Z,102460.94
2023-02-27T14:36:25.990Z,102460.59
2023-02-27T14:38:57.970Z,102482.59
2023-02-27T14:41:52.423Z,102456.38
2023-02-27T14:44:24.763Z,102457.91
2023-02-27T14:46:54.219Z,102443.97
2023-02-27T14:49:27.751Z,102459.06
2023-02-27T14:51:55.289Z,102459.25
2023-02-27T14:54:27.475Z,102453.84
2023-02-27T14:57:05.573Z,102448.75
2023-02-27T14:59:41.163Z,102445.53
2023-02-27T15:02:26.298Z,102457.88
2023-02-27T15:04:56.780Z,102451.28
2023-02-27T15:07:28.658Z,102448.63
2023-02-27T15:09:58.369Z,102464.50
2023-02-27T15:12:26.683Z,102467.25
2023-02-27T15:14:59.267Z,102453.25
2023-02-27T15:17:28.646Z,102448.78
2023-02-27T15:19:57.636Z,102460.47
2023-02-27T15:22:38.535Z,102460.44
2023-02-27T15:25:07.849Z,102456.63
2023-02-27T15:27:37.181Z,102465.53
2023-02-27T15:30:05.002Z,102458.88
2023-02-27T15:32:38.437Z,102451.84
2023-02-27T15:35:12.411Z,102453.38
2023-02-27T15:37:39.272Z,102474.31
2023-02-27T15:40:10.804Z,102456.88
2023-02-27T15:42:37.642Z,102453.06
2023-02-27T15:45:06.341Z,102455.41
2023-02-27T15:47:33.702Z,102452.25
2023-02-27T15:50:23.370Z,102458.09
2023-02-27T15:53:09.840Z,102463.84
2023-02-27T15:55:56.160Z,102450.13
2023-02-27T15:58:25.877Z,102444.19
2023-02-27T16:01:12.036Z,102446.41
2023-02-27T16:03:42.740Z,102441.06
2023-02-27T16:06:15.242Z,102442.34
2023-02-27T16:08:46.718Z,102453.75
2023-02-27T16:11:25.364Z,102441.53
2023-02-27T16:13:52.819Z,102440.91
2023-02-27T16:16:22.490Z,102452.66
2023-02-27T16:18:52.032Z,102448.28
2023-02-27T16:21:21.339Z,102462.91
2023-02-27T16:23:48.626Z,102462.63
2023-02-27T16:26:15.274Z,102452.88
2023-02-27T16:28:41.914Z,102454.38
2023-02-27T16:31:28.553Z,102459.72
2023-02-27T16:33:57.515Z,102462.47
2023-02-27T16:36:27.280Z,102453.44
2023-02-27T16:38:54.574Z,102449.72
2023-02-27T16:41:22.997Z,102469.16
2023-02-27T16:43:50.978Z,102464.66
2023-02-27T16:46:21.652Z,102472.63
2023-02-27T16:48:53.897Z,102476.91
2023-02-27T16:51:24.186Z,102471.81
2023-02-27T16:53:55.762Z,102484.03
2023-02-27T16:56:37.393Z,102479.91
2023-02-27T16:59:05.558Z,102473.19
2023-02-27T17:01:34.079Z,102486.59
2023-02-27T17:04:01.339Z,102478.59
2023-02-27T17:06:28.990Z,102490.72
2023-02-27T17:08:58.026Z,102482.59
2023-02-27T17:11:24.780Z,102486.31
2023-02-27T17:13:52.172Z,102486.53
2023-02-27T17:16:21.309Z,102495.22
2023-02-27T17:18:48.224Z,102486.34
2023-02-27T17:21:14.966Z,102486.81
2023-02-27T17:23:41.800Z,102484.34
2023-02-27T17:26:11.606Z,102489.97
2023-02-27T17:28:41.812Z,102497.44
2023-02-27T17:31:12.920Z,102491.81
2023-02-27T17:33:39.676Z,102490.97
2023-02-27T17:36:08.658Z,102491.63
2023-02-27T17:38:35.584Z,102491.50
2023-02-27T17:41:14.228Z,102500.19
2023-02-27T17:43:41.800Z,102498.13
2023-02-27T17:46:10.559Z,102503.00
2023-02-27T17:48:38.508Z,102494.38
2023-02-27T17:51:06.855Z,102493.72
2023-02-27T17:53:34.988Z,102501.59
2023-02-27T17:56:02.755Z,102506.81
2023-02-27T17:58:29.633Z,102506.16
2023-02-27T18:01:07.314Z,102520.13
2023-02-27T18:03:34.781Z,102508.84
2023-02-27T18:06:01.720Z,102517.06
2023-02-27T18:08:28.962Z,102523.50
2023-02-27T18:10:55.658Z,102530.75
2023-02-27T18:13:22.657Z,102531.34
2023-02-27T18:15:52.518Z,102531.72
2023-02-27T18:18:20.338Z,102537.13
2023-02-27T18:20:47.527Z,102541.88
2023-02-27T18:23:15.549Z,102537.59
2023-02-27T18:25:42.549Z,102538.00
2023-02-27T18:28:11.054Z,102540.22
2023-02-27T18:30:39.193Z,102543.97
2023-02-27T18:33:06.275Z,102545.03
2023-02-27T18:35:33.162Z,102542.09
2023-02-27T18:38:02.296Z,102544.84
2023-02-27T18:40:30.592Z,102549.53
2023-02-27T18:42:57.503Z,102545.03
2023-02-27T18:45:24.848Z,102548.66
2023-02-27T18:47:53.043Z,102540.28
2023-02-27T18:50:19.961Z,102543.78
2023-02-27T18:52:47.410Z,102534.28
2023-02-27T18:55:14.859Z,102534.97
2023-02-27T18:57:41.698Z,102531.19
2023-02-27T19:00:09.579Z,102544.59
2023-02-27T19:02:41.689Z,102538.00
2023-02-27T19:05:11.237Z,102541.72
2023-02-27T19:07:39.011Z,102538.22
2023-02-27T19:10:07.475Z,102535.38
2023-02-27T19:12:35.062Z,102535.31
2023-02-27T19:15:02.128Z,102522.72
2023-02-27T19:17:28.962Z,102546.41
2023-02-27T19:19:55.820Z,102538.75
2023-02-27T19:22:22.589Z,102545.94
2023-02-27T19:24:50.188Z,102537.63
2023-02-27T19:27:17.278Z,102537.50
2023-02-27T19:29:44.151Z,102541.19
2023-02-27T19:32:11.709Z,102540.94
2023-02-27T19:34:38.699Z,102546.41
2023-02-27T19:37:05.480Z,102541.44
2023-02-27T19:39:32.467Z,102542.66
2023-02-27T19:41:59.341Z,102542.00
2023-02-27T19:44:26.785Z,102533.31
2023-02-27T19:46:53.817Z,102540.00
2023-02-27T19:49:20.985Z,102543.63
2023-02-27T19:51:48.993Z,102545.06
2023-02-27T19:54:17.251Z,102550.47
2023-02-27T19:56:44.065Z,102554.28
2023-02-27T19:59:11.921Z,102545.84
2023-02-27T20:01:39.403Z,102549.19
2023-02-27T20:04:08.009Z,102557.56
2023-02-27T20:06:44.021Z,102552.53
2023-02-27T20:09:14.554Z,102563.03
2023-02-27T20:11:46.024Z,102564.19
2023-02-27T20:14:17.378Z,102566.59
2023-02-27T20:16:44.915Z,102566.66
2023-02-27T20:19:17.472Z,102564.75
2023-02-27T20:21:45.582Z,102558.63
2023-02-27T20:24:14.345Z,102562.03
2023-02-27T20:26:43.400Z,102562.59
2023-02-27T20:29:12.880Z,102565.34
2023-02-27T20:31:42.403Z,102562.00
2023-02-27T20:34:11.460Z,102559.72
2023-02-27T20:36:39.610Z,102563.03
2023-02-27T20:39:07.470Z,102558.81
2023-02-27T20:41:35.493Z,102561.16
2023-02-27T20:44:03.298Z,102565.25
2023-02-27T20:46:30.644Z,102570.81
2023-02-27T20:49:00.220Z,102556.19
2023-02-27T20:51:29.707Z,102567.28
2023-02-27T20:53:59.233Z,102570.16
2023-02-27T20:56:31.574Z,102565.97
2023-02-27T20:58:59.813Z,102558.44
2023-02-27T21:01:27.538Z,102565.78
2023-02-27T21:03:57.463Z,102562.16
2023-02-27T21:06:25.110Z,102564.81
2023-02-27T21:08:54.367Z,102550.28
2023-02-27T21:11:27.753Z,102558.72
2023-02-27T21:13:58.487Z,102557.03
2023-02-27T21:16:25.902Z,102550.41
2023-02-27T21:18:53.370Z,102551.09
2023-02-27T21:21:25.578Z,102552.28
2023-02-27T21:23:52.367Z,102554.78
2023-02-27T21:26:28.797Z,102565.78
2023-02-27T21:28:58.493Z,102567.06
2023-02-27T21:31:28.079Z,102559.28
2023-02-27T21:33:55.375Z,102562.22
2023-02-27T21:36:36.224Z,102557.66
2023-02-27T21:39:12.897Z,102560.69
2023-02-27T21:41:39.799Z,102560.94
2023-02-27T21:44:11.584Z,102553.84
2023-02-27T21:46:38.627Z,102549.34
2023-02-27T21:49:14.983Z,102557.59
2023-02-27T21:51:42.054Z,102561.09
2023-02-27T21:54:13.639Z,102557.00
2023-02-27T21:56:41.911Z,102558.41
2023-02-27T21:59:09.271Z,102548.38
2023-02-27T22:01:36.958Z,102551.31
2023-02-27T22:04:04.228Z,102542.00
2023-02-27T22:06:32.279Z,102545.19
2023-02-27T22:09:01.372Z,102547.63
2023-02-27T22:11:29.363Z,102548.63
2023-02-27T22:13:57.045Z,102546.16
2023-02-27T22:16:37.230Z,102543.53
2023-02-27T22:19:08.798Z,102547.47
2023-02-27T22:21:39.815Z,102550.88
2023-02-27T22:24:16.386Z,102538.16
2023-02-27T22:26:44.693Z,102547.28
2023-02-27T22:29:15.859Z,102553.50
2023-02-27T22:31:45.643Z,102546.03
2023-02-27T22:34:26.328Z,102558.25
2023-02-27T22:36:55.114Z,102556.25
2023-02-27T22:39:22.126Z,102551.78
2023-02-27T22:41:48.929Z,102551.22
2023-02-27T22:44:16.401Z,102556.47
2023-02-27T22:46:45.838Z,102566.84
2023-02-27T22:49:21.205Z,102564.72
2023-02-27T22:51:51.643Z,102566.09
2023-02-27T22:54:23.100Z,102563.91
2023-02-27T22:56:51.978Z,102572.06
2023-02-27T22:59:26.215Z,102572.88
2023-02-27T23:01:58.792Z,102571.25
2023-02-27T23:04:29.879Z,102568.13
2023-02-27T23:06:57.616Z,102566.72
2023-02-27T23:09:26.151Z,102574.34
2023-02-27T23:11:53.665Z,102568.72
2023-02-27T23:14:21.524Z,102574.56
2023-02-27T23:16:48.410Z,102583.94
2023-02-27T23:19:17.567Z,102580.81
2023-02-27T23:21:44.844Z,102589.84
2023-02-27T23:24:14.332Z,102586.94
2023-02-27T23:26:44.236Z,102598.81
2023-02-27T23:29:11.575Z,102591.50
2023-02-27T23:31:38.792Z,102593.91
2023-02-27T23:34:06.509Z,102592.03
2023-02-27T23:36:34.968Z,102594.03
2023-02-27T23:39:05.285Z,102590.91
2023-02-27T23:41:51.325Z,102593.72
2023-02-27T23:44:20.052Z,102601.16
2023-02-27T23:46:47.194Z,102593.19
2023-02-27T23:49:14.908Z,102599.00
2023-02-27T23:51:46.681Z,102591.06
2023-02-27T23:54:13.735Z,102605.94
2023-02-27T23:56:40.424Z,102602.00
2023-02-27T23:59:07.614Z,102602.66
